Strona główna
METAR-TAF:

METAR-TAF

Lotnisko :

Watertown, Dakota Południowa, Stany Zjednoczone

Szerokość geograficzna: 44-54-17N, Długość geograficzna: 097-08-58W, wysokość: 532 m

Aktualna obserwacja pogody

Raport powstał 55 minut temu, godzina 00:53 UTC
Wiatr 5 kt od zachodnio-północny zachód
Temperatura 23°C
Wilgotność 47%
Ciśnienie 1012 hPa
Widzialność: 16.1 km
bezchmurnie

METAR: KATY 260053Z AUTO 30005KT 10SM CLR 23/11 A2987 RMK AO2 SLP108 T02330111

czas: 20:48 (01:48 UTC)

Prognoza

Raport powstał 2 godziny i 19 minut temu, godzina 23:29 UTC
Prognoza ważna od 26 godzina 00 UTC do 26 godzina 24 UTC
Wiatr 10 kt od zachodnio-północny zachód
Widzialność: 10 km
bezchmurnie
Od 26 godzina 1000 UTC
Wiatr 5 kt od południowo-południowy wschód
Widzialność: 10 km
Przerywane chmury na wysokości 7000 ft, Cumulonimbus.
burza w pobliże
Od 26 godzina 1500 UTC
Wiatr 12 kt od południe
Widzialność: 10 km
Przerywane chmury na wysokości 15000 ft

TAF: KATY 252329Z 2600/2624 29010KT P6SM SKC FM261000 16005KT P6SM VCTS BKN070CB FM261500 17012KT P6SM BKN150

Obserwacja i prognoza pogody dla ponad 4000 lotnisk (raport METAR i TAF).

Dostępne stacje oznaczono żółtymi i czerwonymi punktami na mapie.

Najedź kursorem aby zobaczyć nazwę stacji.

Kliknij aby zobaczyć obserwacje i prognozy pogody.

Aby zmienić mapę: kliknij na zielony przycisk z czarnym krzyżykiem, aby powiększyć; na zielony przycisk z myślnikiem, aby pomniejszyć; na zielone strzałki, aby przejść do map sąsiednich.


METAR-TAF: